Time;durP1;ratioP1;P1;durP2;ratioP2;P2;SDS_P1;SDS_P2;PMS_P1;PMS_P2;Temp;Humidity;BMP_temperature;BMP_pressure;BME280_temperature;BME280_humidity;BME280_pressure;Samples;Min_cycle;Max_cycle;Signal;HPM_P1;HPM_P2
2022/11/18 00:02:04;;;;;;;;;3.33;2.00;;;;;11.92;69.22;99402.19;5105583;27;45361;-71
2022/11/18 00:04:30;;;;;;;;;0.00;0.00;;;;;11.32;69.33;99313.50;5100273;27;45504;-72
2022/11/18 00:06:55;;;;;;;;;3.00;2.00;;;;;11.75;69.19;99399.66;5119056;27;45893;-70
2022/11/18 00:09:21;;;;;;;;;1.00;1.00;;;;;11.69;69.17;99379.13;5122081;27;45540;-70
2022/11/18 00:14:30;;;;;;;;;2.67;1.00;;;;;11.92;69.00;99415.50;5108332;27;45484;-70
2022/11/18 00:16:57;;;;;;;;;1.00;1.00;;;;;11.88;68.76;99423.84;5121214;27;46432;-70
2022/11/18 00:19:26;;;;;;;;;2.00;1.00;;;;;11.85;68.91;99437.53;5119693;27;45252;-70
2022/11/18 00:21:51;;;;;;;;;2.50;0.00;;;;;11.69;69.39;99424.38;5102633;27;45597;-72
2022/11/18 00:24:17;;;;;;;;;1.67;1.67;;;;;10.68;69.31;99246.69;5102670;27;45487;-72
2022/11/18 00:26:42;;;;;;;;;1.00;1.00;;;;;11.20;69.06;99337.06;5119332;27;45932;-70
2022/11/18 00:29:09;;;;;;;;;2.00;0.00;;;;;11.48;68.98;99392.34;5102532;27;45379;-70
2022/11/18 00:31:35;;;;;;;;;1.00;1.00;;;;;11.12;69.39;99345.13;5121098;27;45454;-71
2022/11/18 00:34:00;;;;;;;;;1.25;1.25;;;;;11.04;69.43;99326.63;5102804;27;45636;-69
2022/11/18 00:36:26;;;;;;;;;1.33;1.33;;;;;11.50;69.01;99408.94;5120783;27;46081;-71
2022/11/18 00:38:51;;;;;;;;;1.00;1.00;;;;;11.79;69.31;99464.06;5114195;27;45297;-71
2022/11/18 00:41:16;;;;;;;;;0.00;0.00;;;;;10.72;69.30;99317.09;5100717;27;45275;-72
2022/11/18 00:43:42;;;;;;;;;1.00;1.00;;;;;11.54;69.02;99442.16;5100620;27;45280;-71
2022/11/18 00:46:10;;;;;;;;;1.00;1.00;;;;;11.71;69.99;99480.09;5081578;27;46559;-71
2022/11/18 00:48:36;;;;;;;;;1.00;1.00;;;;;10.73;68.90;99332.03;5100291;27;45271;-70
2022/11/18 00:51:14;;;;;;;;;0.00;0.00;;;;;11.74;69.04;99488.53;5100388;27;45412;-71
2022/11/18 00:53:40;;;;;;;;;4.00;1.33;;;;;11.57;69.04;99461.25;5100494;27;45406;-71
2022/11/18 00:56:06;;;;;;;;;2.00;0.67;;;;;11.72;69.11;99498.56;5099879;27;45961;-71
2022/11/18 00:58:32;;;;;;;;;1.00;1.00;;;;;11.68;69.29;99491.13;5081578;27;45344;-71
2022/11/18 01:00:58;;;;;;;;;0.00;0.00;;;;;11.32;69.47;99437.72;5100403;27;45182;-70
2022/11/18 01:03:24;;;;;;;;;2.50;1.00;;;;;11.49;69.53;99465.84;5100891;27;45520;-72
2022/11/18 01:05:50;;;;;;;;;0.00;0.00;;;;;11.23;69.09;99429.84;5081835;27;48531;-71
2022/11/18 01:08:17;;;;;;;;;0.33;0.33;;;;;11.23;69.83;99450.28;5100108;27;45256;-71
2022/11/18 01:10:42;;;;;;;;;1.00;1.00;;;;;11.19;69.59;99430.34;5082292;27;45497;-71
2022/11/18 01:13:18;;;;;;;;;0.33;0.33;;;;;11.59;70.06;99501.00;5100418;27;45295;-71
2022/11/18 01:15:52;;;;;;;;;1.00;1.00;;;;;10.32;69.47;99283.72;5100726;27;46372;-69
2022/11/18 01:18:21;;;;;;;;;3.00;1.00;;;;;11.58;69.71;99505.50;5081111;27;45607;-72
2022/11/18 01:20:46;;;;;;;;;1.00;0.00;;;;;10.46;69.28;99325.47;5080780;27;45411;-70
2022/11/18 01:23:13;;;;;;;;;1.00;1.00;;;;;11.58;69.85;99507.34;5099718;27;45186;-70
2022/11/18 01:25:41;;;;;;;;;1.33;1.00;;;;;11.41;69.99;99498.69;5099204;27;48375;-71
2022/11/18 01:28:06;;;;;;;;;0.00;0.00;;;;;10.85;69.33;99390.94;5099259;27;45320;-70
2022/11/18 01:30:33;;;;;;;;;0.00;0.00;;;;;10.58;70.13;99358.56;5081109;27;45283;-70
2022/11/18 01:32:59;;;;;;;;;2.00;2.00;;;;;11.51;70.20;99507.25;5081218;27;45472;-70
2022/11/18 01:35:25;;;;;;;;;1.00;1.00;;;;;10.75;70.01;99395.66;5080738;27;46005;-71
2022/11/18 01:37:50;;;;;;;;;1.00;1.00;;;;;11.42;70.03;99510.16;5080626;27;45354;-71
2022/11/18 01:40:15;;;;;;;;;0.00;0.00;;;;;10.03;69.74;99290.53;5099946;27;45461;-69
2022/11/18 01:42:41;;;;;;;;;0.00;0.00;;;;;11.03;69.98;99457.09;5111065;27;45420;-70
2022/11/18 01:45:16;;;;;;;;;0.00;0.00;;;;;10.48;69.95;99368.63;5120302;27;46518;-72
2022/11/18 01:48:00;;;;;;;;;0.33;0.33;;;;;11.41;70.09;99535.09;5102183;27;45514;-73
2022/11/18 01:50:27;;;;;;;;;2.00;0.00;;;;;11.14;69.71;99505.38;5118925;27;45232;-70
2022/11/18 01:52:58;;;;;;;;;2.00;0.00;;;;;10.62;70.02;99423.66;5100234;27;45551;-71
2022/11/18 01:55:28;;;;;;;;;1.67;1.00;;;;;11.25;70.45;99514.78;5098758;27;47077;-71
2022/11/18 01:58:02;;;;;;;;;0.00;0.00;;;;;11.35;70.73;99543.78;5098949;27;45298;-71
2022/11/18 02:00:28;;;;;;;;;0.00;0.00;;;;;11.25;70.62;99523.59;5098864;27;45234;-71
2022/11/18 02:02:53;;;;;;;;;0.67;0.00;;;;;11.07;70.32;99511.59;5098839;27;45234;-70
2022/11/18 02:05:20;;;;;;;;;2.33;1.00;;;;;11.16;70.76;99516.66;5098697;27;46437;-72
2022/11/18 02:07:46;;;;;;;;;0.00;0.00;;;;;10.69;70.62;99449.53;5079998;27;45331;-69
2022/11/18 02:10:23;;;;;;;;;1.33;0.00;;;;;10.35;70.40;99389.63;5098424;27;46386;-72
2022/11/18 02:12:51;;;;;;;;;0.00;0.00;;;;;11.00;70.88;99506.13;5113730;27;45342;-71
2022/11/18 02:15:27;;;;;;;;;0.50;0.50;;;;;10.21;70.50;99377.06;5100852;27;47163;-72
2022/11/18 02:18:03;;;;;;;;;2.00;1.00;;;;;10.82;70.71;99493.16;5118178;27;45456;-72
2022/11/18 02:20:46;;;;;;;;;1.00;1.00;;;;;10.23;71.00;99412.28;5119227;27;45505;-70
2022/11/18 02:23:44;;;;;;;;;1.00;1.00;;;;;10.27;71.29;99419.72;5119406;27;45272;-69
2022/11/18 02:26:09;;;;;;;;;1.00;0.00;;;;;11.19;70.87;99568.69;5112048;27;46609;-72
2022/11/18 02:28:53;;;;;;;;;0.00;0.00;;;;;11.15;71.42;99568.22;5098495;27;45312;-72
2022/11/18 02:31:25;;;;;;;;;0.33;0.33;;;;;11.03;71.72;99556.34;5101288;27;45498;-69
2022/11/18 02:34:02;;;;;;;;;1.00;0.00;;;;;11.15;70.66;99573.53;5103082;27;45342;-71
2022/11/18 02:36:45;;;;;;;;;1.00;1.00;;;;;10.87;71.20;99521.88;5098775;27;45707;-69
2022/11/18 02:39:32;;;;;;;;;0.00;0.00;;;;;10.73;71.24;99510.13;5098582;27;45495;-69
2022/11/18 02:42:01;;;;;;;;;0.00;0.00;;;;;8.12;71.14;99082.38;5097987;27;45505;-70
2022/11/18 02:44:28;;;;;;;;;2.00;1.00;;;;;10.85;71.04;99534.50;5097954;27;45371;-70
2022/11/18 02:47:00;;;;;;;;;1.33;0.33;;;;;11.14;71.47;99597.66;5079748;27;48707;-70
2022/11/18 02:49:50;;;;;;;;;1.00;1.00;;;;;11.14;71.00;99595.81;5098148;27;45279;-70
2022/11/18 02:52:19;;;;;;;;;0.00;0.00;;;;;10.60;71.16;99516.00;5097553;27;45343;-71
2022/11/18 02:54:48;;;;;;;;;0.00;0.00;;;;;11.06;71.72;99592.41;5098182;27;45494;-71
2022/11/18 02:57:14;;;;;;;;;0.00;0.00;;;;;10.39;71.49;99491.88;5097758;27;45843;-70
2022/11/18 02:59:40;;;;;;;;;1.00;0.00;;;;;11.05;71.34;99594.22;5097911;27;45390;-71
2022/11/18 03:02:05;;;;;;;;;1.00;1.00;;;;;10.73;71.46;99542.03;5097440;27;45458;-72
2022/11/18 03:04:32;;;;;;;;;0.00;0.00;;;;;11.04;71.76;99594.41;5079911;27;45359;-71
2022/11/18 03:07:30;;;;;;;;;2.00;0.00;;;;;11.00;71.38;99601.88;5097450;27;46620;-70
2022/11/18 03:09:58;;;;;;;;;0.00;0.00;;;;;11.01;71.83;99630.13;5098941;27;45327;-71
2022/11/18 03:12:42;;;;;;;;;0.00;0.00;;;;;10.91;71.63;99610.91;5098732;27;45384;-69
2022/11/18 03:15:29;;;;;;;;;1.00;0.00;;;;;10.91;71.55;99613.56;5079850;27;45656;-70
2022/11/18 03:18:03;;;;;;;;;0.33;0.33;;;;;10.87;71.46;99625.56;5079479;27;46761;-71
2022/11/18 03:20:47;;;;;;;;;0.00;0.00;;;;;10.27;71.81;99525.16;5097568;27;45486;-71
2022/11/18 03:23:24;;;;;;;;;1.00;0.00;;;;;10.83;71.80;99626.91;5097405;27;45442;-70
2022/11/18 03:25:56;;;;;;;;;2.00;0.00;;;;;10.79;71.51;99610.44;5106628;27;45293;-70
2022/11/18 03:28:36;;;;;;;;;0.00;0.00;;;;;10.80;72.18;99616.59;5118274;27;46491;-70
2022/11/18 03:31:28;;;;;;;;;0.00;0.00;;;;;10.82;72.36;99614.63;5115052;27;45309;-69
2022/11/18 03:34:02;;;;;;;;;0.00;0.00;;;;;10.59;72.12;99591.44;5097754;27;45330;-70
2022/11/18 03:36:34;;;;;;;;;0.50;0.00;;;;;10.78;72.37;99621.25;5097792;27;45365;-70
2022/11/18 03:39:04;;;;;;;;;0.00;0.00;;;;;10.45;72.65;99596.66;5097927;27;46312;-70
2022/11/18 03:41:34;;;;;;;;;1.00;0.00;;;;;10.14;72.53;99522.16;5097374;27;45497;-69
2022/11/18 03:44:12;;;;;;;;;0.00;0.00;;;;;10.27;72.46;99565.00;5097652;27;45257;-70
2022/11/18 03:46:42;;;;;;;;;1.00;0.00;;;;;10.76;72.33;99641.88;5098511;27;45373;-71
2022/11/18 03:49:15;;;;;;;;;0.00;0.00;;;;;10.77;72.24;99656.81;5096984;27;45780;-71
2022/11/18 03:51:50;;;;;;;;;1.00;1.00;;;;;10.70;72.46;99637.25;5097151;27;45525;-71
2022/11/18 03:54:37;;;;;;;;;0.33;0.33;;;;;10.71;72.75;99646.88;5097446;27;45345;-69
2022/11/18 03:57:16;;;;;;;;;0.00;0.00;;;;;10.63;72.30;99631.81;5097891;27;45268;-70
2022/11/18 03:59:47;;;;;;;;;0.00;0.00;;;;;10.75;72.45;99672.13;5096983;27;45636;-70
2022/11/18 04:02:20;;;;;;;;;1.00;1.00;;;;;10.18;72.66;99582.72;5097785;27;45268;-70
2022/11/18 04:04:49;;;;;;;;;1.00;1.00;;;;;10.68;73.09;99669.34;5097185;27;45409;-70
2022/11/18 04:07:44;;;;;;;;;0.00;0.00;;;;;10.70;72.85;99664.66;5097441;27;45299;-72
2022/11/18 04:10:16;;;;;;;;;0.33;0.33;;;;;10.56;72.38;99647.59;5095635;27;47680;-70
2022/11/18 04:12:48;;;;;;;;;2.00;0.33;;;;;10.04;72.62;99576.31;5099165;27;45622;-71
2022/11/18 04:15:14;;;;;;;;;0.00;0.00;;;;;10.70;73.03;99679.78;5099827;27;45390;-71
2022/11/18 04:17:41;;;;;;;;;0.50;0.50;;;;;10.73;72.87;99685.59;5082696;27;45510;-71
2022/11/18 04:20:15;;;;;;;;;1.00;1.00;;;;;10.35;72.70;99636.69;5100246;27;45870;-69
2022/11/18 04:22:41;;;;;;;;;4.67;4.67;;;;;10.11;72.82;99615.47;5100269;27;45392;-70
2022/11/18 04:25:06;;;;;;;;;0.00;0.00;;;;;10.32;72.83;99639.69;5100665;27;45494;-70
2022/11/18 04:27:32;;;;;;;;;0.75;0.75;;;;;10.50;72.82;99672.19;5082246;27;45502;-70
2022/11/18 04:29:57;;;;;;;;;0.00;0.00;;;;;10.47;73.32;99696.47;5106931;27;46588;-70
2022/11/18 04:32:22;;;;;;;;;2.00;1.00;;;;;9.93;72.97;99597.88;5106642;27;45244;-71
2022/11/18 04:34:48;;;;;;;;;2.00;2.00;;;;;10.30;73.23;99654.97;5081940;27;45475;-71
2022/11/18 04:37:13;;;;;;;;;1.00;1.00;;;;;10.48;73.19;99687.47;5100334;27;45343;-71
2022/11/18 04:39:38;;;;;;;;;2.33;1.00;;;;;9.45;73.28;99524.44;5100234;27;47397;-71
2022/11/18 04:42:04;;;;;;;;;1.67;1.00;;;;;10.48;72.87;99698.13;5120728;27;45214;-71
2022/11/18 04:44:31;;;;;;;;;1.00;0.33;;;;;10.59;73.21;99715.50;5120857;27;45285;-71
2022/11/18 04:46:59;;;;;;;;;1.00;1.00;;;;;10.40;73.35;99708.72;5120880;27;45524;-70
2022/11/18 04:49:26;;;;;;;;;1.33;1.00;;;;;9.89;73.25;99628.44;5120437;27;45406;-71
2022/11/18 04:51:52;;;;;;;;;1.67;0.00;;;;;10.52;73.55;99730.50;5107747;27;45479;-70
2022/11/18 04:54:18;;;;;;;;;2.00;1.00;;;;;10.54;73.71;99739.94;5100038;27;45351;-70
2022/11/18 04:56:44;;;;;;;;;2.00;0.67;;;;;9.52;72.78;99567.06;5100170;27;45319;-71
2022/11/18 04:59:11;;;;;;;;;0.33;0.00;;;;;10.51;72.81;99734.97;5099335;27;45202;-70
2022/11/18 05:01:36;;;;;;;;;0.67;0.67;;;;;9.46;73.36;99560.59;5090852;27;45305;-72
2022/11/18 05:04:03;;;;;;;;;0.00;0.00;;;;;10.38;73.22;99724.03;5120222;27;45333;-69
2022/11/18 05:06:30;;;;;;;;;0.00;0.00;;;;;9.72;73.29;99609.00;5105381;27;45433;-71
2022/11/18 05:08:59;;;;;;;;;1.00;1.00;;;;;9.52;72.86;99582.97;5081733;27;48084;-71
2022/11/18 05:14:11;;;;;;;;;3.67;2.00;;;;;10.27;73.09;99705.78;5119410;27;45319;-71
2022/11/18 05:16:36;;;;;;;;;1.67;1.67;;;;;10.23;72.85;99715.09;5121906;27;45196;-71
2022/11/18 05:19:03;;;;;;;;;1.00;1.00;;;;;10.45;72.78;99740.97;5120222;27;45806;-71
2022/11/18 05:21:28;;;;;;;;;2.00;2.00;;;;;10.39;72.80;99738.13;5101301;27;45762;-71
2022/11/18 05:23:54;;;;;;;;;2.33;1.00;;;;;10.42;72.84;99737.81;5101659;27;45434;-70
2022/11/18 05:26:19;;;;;;;;;2.00;1.00;;;;;10.36;72.88;99745.44;5101676;27;45555;-70
2022/11/18 05:28:45;;;;;;;;;1.67;1.00;;;;;10.47;72.58;99776.19;5119886;27;45510;-71
2022/11/18 05:31:15;;;;;;;;;1.67;1.67;;;;;10.42;72.61;99751.09;5119098;27;45424;-69
2022/11/18 05:33:42;;;;;;;;;3.00;2.00;;;;;10.45;72.84;99762.22;5120074;27;45399;-71
2022/11/18 05:36:10;;;;;;;;;1.00;1.00;;;;;8.68;72.45;99475.34;5119949;27;45285;-70
2022/11/18 05:38:36;;;;;;;;;1.67;1.67;;;;;10.07;72.44;99705.25;5118221;27;46262;-71
2022/11/18 05:41:02;;;;;;;;;2.33;1.67;;;;;10.43;72.34;99763.41;5119508;27;45303;-70
2022/11/18 05:43:30;;;;;;;;;1.67;1.67;;;;;10.40;72.78;99769.84;5101290;27;45177;-71
2022/11/18 05:45:55;;;;;;;;;0.33;0.33;;;;;9.48;72.61;99621.44;5106285;27;46044;-70
2022/11/18 05:48:21;;;;;;;;;1.00;1.00;;;;;9.72;72.20;99666.56;5119295;27;45566;-70
2022/11/18 05:50:48;;;;;;;;;4.33;1.67;;;;;10.29;72.47;99762.22;5101636;27;45251;-69
2022/11/18 05:53:15;;;;;;;;;2.75;1.00;;;;;9.31;72.09;99612.63;5119788;27;45497;-72
2022/11/18 05:55:53;;;;;;;;;2.67;1.00;;;;;10.29;72.70;99788.78;5119876;27;45533;-69
2022/11/18 05:58:18;;;;;;;;;3.50;2.00;;;;;10.10;72.04;99750.06;5119295;27;46450;-70
2022/11/18 06:00:46;;;;;;;;;1.00;1.00;;;;;10.20;72.45;99781.75;5083143;27;45548;-71
2022/11/18 06:03:18;;;;;;;;;5.00;1.00;;;;;10.04;71.96;99748.91;5080497;27;45228;-72
2022/11/18 06:05:43;;;;;;;;;5.67;1.33;;;;;9.83;72.11;99722.00;5112364;27;45527;-69
2022/11/18 06:08:12;;;;;;;;;6.67;5.33;;;;;10.27;72.07;99799.59;5098306;27;46067;-70
2022/11/18 06:10:42;;;;;;;;;1.33;1.33;;;;;9.73;72.34;99716.84;5097186;27;45402;-70
2022/11/18 06:13:13;;;;;;;;;1.67;1.67;;;;;10.19;72.42;99793.38;5088179;27;45535;-70
2022/11/18 06:15:42;;;;;;;;;2.00;2.00;;;;;9.27;72.32;99651.09;5077944;27;45305;-71
2022/11/18 06:18:16;;;;;;;;;3.00;2.00;;;;;10.15;72.40;99806.19;5079665;27;46836;-69
2022/11/18 06:20:42;;;;;;;;;3.67;2.67;;;;;10.25;72.47;99829.97;5078050;28;45469;-70
2022/11/18 06:23:07;;;;;;;;;2.33;1.33;;;;;10.13;71.88;99791.41;5077913;27;45363;-70
2022/11/18 06:25:37;;;;;;;;;2.33;2.33;;;;;10.27;72.49;99839.44;5076896;28;45256;-71
2022/11/18 06:28:02;;;;;;;;;1.00;1.00;;;;;9.50;72.04;99728.22;5077703;27;46089;-71
2022/11/18 06:30:28;;;;;;;;;2.00;2.00;;;;;10.23;72.46;99835.44;5077775;27;45275;-71
2022/11/18 06:32:53;;;;;;;;;6.67;4.00;;;;;10.16;72.02;99826.44;5095573;27;45491;-71
2022/11/18 06:35:19;;;;;;;;;1.33;0.67;;;;;10.12;72.19;99826.91;5093508;27;45422;-73
2022/11/18 06:37:45;;;;;;;;;3.67;1.00;;;;;10.11;72.39;99834.06;5077139;28;45931;-71
2022/11/18 06:40:11;;;;;;;;;1.33;1.00;;;;;10.15;72.27;99845.19;5078114;27;45394;-71
2022/11/18 06:45:20;;;;;;;;;3.00;2.00;;;;;9.65;72.56;99801.75;5077971;28;45409;-70
2022/11/18 06:47:46;;;;;;;;;1.67;1.67;;;;;9.90;72.81;99831.84;5086090;27;45374;-71
2022/11/18 06:50:12;;;;;;;;;2.00;2.00;;;;;9.98;72.21;99870.88;5096827;27;45345;-72
2022/11/18 06:52:37;;;;;;;;;16.00;12.67;;;;;9.91;73.53;99848.63;5096902;27;45336;-71
2022/11/18 06:55:06;;;;;;;;;2.50;1.00;;;;;9.83;72.91;99844.13;5093309;27;45461;-70
2022/11/18 06:57:31;;;;;;;;;3.00;3.00;;;;;9.93;73.19;99860.72;5079177;27;47050;-72
2022/11/18 06:59:56;;;;;;;;;3.00;3.00;;;;;9.76;72.99;99851.03;5077339;27;45388;-72
2022/11/18 07:02:22;;;;;;;;;2.00;1.00;;;;;9.88;72.93;99862.22;5077646;27;45242;-71
2022/11/18 07:04:47;;;;;;;;;3.00;1.33;;;;;9.60;73.10;99803.22;5076550;28;45509;-70
2022/11/18 07:07:12;;;;;;;;;3.00;3.00;;;;;9.66;72.98;99829.13;5089349;27;46965;-73
2022/11/18 07:09:38;;;;;;;;;1.00;1.00;;;;;9.95;73.01;99885.28;5097790;27;45470;-72
2022/11/18 07:12:04;;;;;;;;;4.67;3.00;;;;;9.97;72.90;99911.69;5080180;27;45775;-71
2022/11/18 07:14:29;;;;;;;;;3.33;3.00;;;;;9.93;73.40;99892.59;5117572;27;45433;-70
2022/11/18 07:16:55;;;;;;;;;6.00;2.00;;;;;9.63;73.04;99856.00;5116030;27;45728;-71
2022/11/18 07:19:20;;;;;;;;;3.67;3.00;;;;;9.36;72.52;99826.00;5079675;27;45863;-72
2022/11/18 07:21:46;;;;;;;;;3.00;3.00;;;;;9.96;73.14;99936.56;5098196;27;45276;-72
2022/11/18 07:24:13;;;;;;;;;4.00;2.67;;;;;9.93;73.11;99916.50;5101966;27;45524;-73
2022/11/18 07:26:39;;;;;;;;;2.67;2.67;;;;;9.96;72.90;99916.16;5079818;27;47725;-71
2022/11/18 07:29:04;;;;;;;;;3.00;3.00;;;;;9.54;73.07;99848.97;5098618;27;45336;-73
2022/11/18 07:31:30;;;;;;;;;9.33;9.33;;;;;9.84;73.41;99914.81;5098371;27;45537;-73
2022/11/18 07:33:57;;;;;;;;;3.00;3.00;;;;;9.57;72.56;99853.94;5099292;27;45353;-72
2022/11/18 07:36:25;;;;;;;;;4.00;3.00;;;;;9.73;72.32;99888.53;5098222;27;45431;-72
2022/11/18 07:38:51;;;;;;;;;4.67;3.67;;;;;10.00;72.54;99937.91;5079375;27;45505;-71
2022/11/18 07:41:23;;;;;;;;;3.67;1.00;;;;;9.37;72.36;99824.19;5080714;27;45522;-71
2022/11/18 07:43:50;;;;;;;;;2.67;2.33;;;;;9.66;72.31;99876.91;5099733;27;45420;-71
2022/11/18 07:46:21;;;;;;;;;3.00;2.00;;;;;10.17;72.36;99955.56;5114542;27;45428;-72
2022/11/18 07:48:48;;;;;;;;;5.67;4.33;;;;;10.12;72.01;99930.50;5103523;27;45419;-74
2022/11/18 07:51:15;;;;;;;;;4.33;3.00;;;;;9.37;72.13;99819.72;5105796;27;45557;-73
2022/11/18 07:53:41;;;;;;;;;2.33;1.67;;;;;10.32;72.04;99947.88;5090658;27;45483;-70
2022/11/18 07:56:08;;;;;;;;;5.00;5.00;;;;;9.80;71.53;99867.47;5114313;27;45909;-72
2022/11/18 07:58:35;;;;;;;;;4.00;4.00;;;;;10.19;71.42;99916.41;5101083;27;45489;-70
2022/11/18 08:01:08;;;;;;;;;5.33;4.00;;;;;10.39;71.12;99935.59;5102814;27;45594;-71
2022/11/18 08:03:33;;;;;;;;;8.00;4.00;;;;;10.36;70.80;99934.09;5113527;27;45479;-71
2022/11/18 08:06:00;;;;;;;;;3.00;1.00;;;;;10.43;70.69;99931.63;5120333;27;46623;-72
2022/11/18 08:08:25;;;;;;;;;4.67;4.00;;;;;9.75;70.33;99796.31;5102775;27;45360;-72
2022/11/18 08:10:56;;;;;;;;;19.00;14.00;;;;;10.91;70.16;99981.38;5102569;27;45366;-72
2022/11/18 08:13:21;;;;;;;;;8.33;7.33;;;;;10.47;69.42;99886.97;5086342;27;46949;-73
2022/11/18 08:15:46;;;;;;;;;8.67;4.67;;;;;11.14;69.38;99976.22;5111808;27;46139;-72
2022/11/18 08:18:12;;;;;;;;;2.00;2.00;;;;;11.24;68.40;99982.22;5101068;27;45504;-73
2022/11/18 08:20:37;;;;;;;;;16.33;15.00;;;;;11.04;68.72;99959.63;5101522;27;45520;-71
2022/11/18 08:23:03;;;;;;;;;6.00;2.00;;;;;11.25;68.86;99977.75;5100681;27;45215;-74
2022/11/18 08:25:28;;;;;;;;;4.00;4.00;;;;;11.13;68.74;99931.16;5091936;27;46167;-74
2022/11/18 08:27:54;;;;;;;;;4.00;4.00;;;;;11.50;68.12;99981.19;5104658;27;45215;-74
2022/11/18 08:30:19;;;;;;;;;2.67;2.67;;;;;11.53;67.89;99981.69;5082251;27;45303;-73
2022/11/18 08:32:45;;;;;;;;;4.00;3.00;;;;;11.56;67.41;99981.34;5116137;27;45234;-74
2022/11/18 08:35:10;;;;;;;;;6.33;4.33;;;;;11.71;67.50;99994.81;5086499;27;47561;-74
2022/11/18 08:37:36;;;;;;;;;4.00;4.00;;;;;10.76;67.35;99806.72;5099986;27;45464;-74
2022/11/18 08:40:02;;;;;;;;;1.67;1.67;;;;;12.13;66.47;99996.38;5099499;27;45407;-72
2022/11/18 08:42:27;;;;;;;;;2.00;2.00;;;;;12.32;66.14;99993.31;5110643;27;45671;-74
2022/11/18 08:44:53;;;;;;;;;2.00;0.67;;;;;11.97;65.15;99887.22;5108700;27;45552;-74
2022/11/18 08:47:18;;;;;;;;;3.33;3.00;;;;;12.19;64.18;99886.44;5100452;27;45440;-72
2022/11/18 08:49:44;;;;;;;;;2.33;2.33;;;;;13.33;62.89;99971.81;5105336;27;45466;-74
2022/11/18 08:52:09;;;;;;;;;5.33;4.33;;;;;13.64;61.29;99930.81;5117644;27;45337;-76
2022/11/18 08:54:35;;;;;;;;;5.00;4.00;;;;;14.61;59.76;99960.84;5114501;27;46680;-74
2022/11/18 08:57:00;;;;;;;;;4.67;4.00;;;;;14.46;57.78;99877.16;5121291;27;45450;-75
2022/11/18 08:59:26;;;;;;;;;5.00;2.00;;;;;16.11;55.32;99954.25;5101791;27;46413;-76
2022/11/18 09:01:51;;;;;;;;;4.67;4.67;;;;;16.22;53.08;99890.31;5101926;27;45413;-74
2022/11/18 09:04:17;;;;;;;;;6.00;3.33;;;;;16.84;53.16;99996.66;5120237;27;45594;-76
2022/11/18 09:06:43;;;;;;;;;5.33;2.67;;;;;16.06;53.01;99916.47;5120802;27;45675;-75
2022/11/18 09:09:08;;;;;;;;;1.50;1.50;;;;;15.59;53.61;99900.34;5101676;27;45466;-75
2022/11/18 09:11:36;;;;;;;;;0.75;0.75;;;;;16.06;54.60;99993.41;5121750;27;45244;-75
2022/11/18 09:14:01;;;;;;;;;4.33;2.67;;;;;15.62;55.38;99938.31;5104243;27;47582;-73
2022/11/18 09:16:30;;;;;;;;;1.00;1.00;;;;;15.94;55.24;100009.22;5080979;27;45529;-75
2022/11/18 09:18:56;;;;;;;;;2.25;0.50;;;;;15.05;55.20;99903.66;5100478;27;45343;-75
2022/11/18 09:21:22;;;;;;;;;3.00;3.00;;;;;15.30;55.63;99971.81;5107594;27;45501;-74
2022/11/18 09:23:48;;;;;;;;;0.75;0.75;;;;;15.04;56.29;99956.38;5119496;27;45951;-76
2022/11/18 09:26:18;;;;;;;;;2.33;1.67;;;;;15.25;56.81;100014.44;5101500;27;45187;-75
2022/11/18 09:28:43;;;;;;;;;0.25;0.00;;;;;14.93;57.11;100009.56;5101120;27;45576;-75
2022/11/18 09:31:11;;;;;;;;;1.50;1.50;;;;;14.68;57.97;99990.38;5120958;27;45499;-75
2022/11/18 09:33:37;;;;;;;;;3.67;2.00;;;;;14.75;57.64;100026.88;5102177;27;48644;-80
2022/11/18 09:36:05;;;;;;;;;7.33;7.33;;;;;14.63;58.40;100030.22;5102777;27;45342;-75
2022/11/18 09:38:31;;;;;;;;;6.33;2.33;;;;;14.51;58.36;100019.16;5081429;27;45541;-76
2022/11/18 09:40:59;;;;;;;;;1.00;1.00;;;;;14.42;59.27;100020.28;5104521;27;45357;-74
2022/11/18 09:43:40;;;;;;;;;2.67;1.00;;;;;12.43;59.09;99713.03;5099092;27;45404;-74
2022/11/18 09:46:45;;;;;;;;;3.67;3.33;;;;;14.24;59.58;100021.50;5099742;27;45454;-75
2022/11/18 09:49:15;;;;;;;;;4.33;3.33;;;;;13.67;59.69;99955.31;5099968;27;45305;-73
2022/11/18 09:51:50;;;;;;;;;3.00;2.33;;;;;13.56;59.98;99944.22;5101223;27;45567;-74
2022/11/18 09:54:22;;;;;;;;;3.67;3.67;;;;;13.75;60.55;99986.44;5085812;27;48608;-75
2022/11/18 09:56:50;;;;;;;;;1.67;1.67;;;;;13.28;60.64;99930.66;5104219;27;45284;-75
2022/11/18 09:59:19;;;;;;;;;4.00;3.00;;;;;13.47;60.89;99962.19;5080206;27;45542;-77
2022/11/18 10:01:45;;;;;;;;;4.00;3.00;;;;;13.48;60.56;99963.84;5099381;27;45289;-73
2022/11/18 10:04:20;;;;;;;;;3.00;2.67;;;;;13.16;60.62;99940.91;5081602;27;47849;-74
2022/11/18 10:06:47;;;;;;;;;2.67;2.67;;;;;13.43;60.74;99976.94;5101399;27;45366;-74
2022/11/18 10:09:29;;;;;;;;;1.50;1.50;;;;;13.88;60.98;100052.63;5084458;27;45461;-77
2022/11/18 10:12:20;;;;;;;;;3.33;2.00;;;;;13.91;61.29;100055.75;5099382;27;45474;-77
2022/11/18 10:15:01;;;;;;;;;3.33;2.00;;;;;13.78;60.85;100060.03;5119601;27;46330;-77
2022/11/18 10:17:42;;;;;;;;;1.00;1.00;;;;;13.76;61.64;100051.38;5119675;27;45493;-76
2022/11/18 10:20:38;;;;;;;;;4.67;4.67;;;;;13.79;61.56;100051.03;5101662;27;45386;-75
2022/11/18 10:23:15;;;;;;;;;3.00;2.00;;;;;13.73;61.72;100073.13;5088799;27;45317;-77
2022/11/18 10:25:40;;;;;;;;;2.00;2.00;;;;;13.37;61.83;100007.00;5080652;27;48272;-72
2022/11/18 10:28:25;;;;;;;;;4.00;2.00;;;;;13.51;61.86;100034.75;5080514;27;45435;-71
2022/11/18 10:30:51;;;;;;;;;4.67;2.00;;;;;12.61;61.76;99880.66;5099672;27;45474;-72
2022/11/18 10:33:27;;;;;;;;;2.50;1.25;;;;;13.75;62.04;100055.06;5098893;27;45307;-73
2022/11/18 10:36:16;;;;;;;;;1.75;1.75;;;;;13.44;61.72;100010.63;5096213;27;48717;-73
2022/11/18 10:38:42;;;;;;;;;3.50;2.00;;;;;13.88;61.69;100060.63;5098223;27;45506;-73
2022/11/18 10:41:13;;;;;;;;;2.25;2.00;;;;;13.72;62.03;100010.84;5108395;27;45413;-72
2022/11/18 10:43:50;;;;;;;;;2.00;2.00;;;;;14.21;60.90;100063.78;5097552;27;45204;-73
2022/11/18 10:46:33;;;;;;;;;2.33;2.33;;;;;14.30;60.61;100060.84;5086791;27;47979;-73
2022/11/18 10:49:07;;;;;;;;;5.00;4.00;;;;;14.40;60.03;100073.91;5095380;27;45705;-74
2022/11/18 10:51:34;;;;;;;;;6.00;3.00;;;;;13.78;59.74;99945.16;5107768;27;45336;-71
2022/11/18 10:54:07;;;;;;;;;5.67;2.00;;;;;14.53;60.03;100063.44;5100729;27;45482;-73
2022/11/18 10:56:55;;;;;;;;;3.00;3.00;;;;;14.59;59.65;100067.22;5078970;27;47104;-72
2022/11/18 10:59:47;;;;;;;;;4.67;4.00;;;;;14.65;59.64;100060.31;5090776;27;46276;-72
2022/11/18 11:02:12;;;;;;;;;5.00;5.00;;;;;14.68;59.06;100062.59;5116756;27;45475;-72
2022/11/18 11:04:38;;;;;;;;;1.25;1.25;;;;;13.98;59.06;99948.94;5117826;27;45354;-73
2022/11/18 11:07:26;;;;;;;;;4.25;1.50;;;;;14.63;59.08;100054.31;5104082;27;45854;-71
2022/11/18 11:10:04;;;;;;;;;2.67;2.67;;;;;14.08;59.52;99999.47;5097870;27;45440;-72
2022/11/18 11:12:45;;;;;;;;;6.00;3.00;;;;;13.58;58.43;99894.97;5079408;27;45365;-72
2022/11/18 11:15:34;;;;;;;;;1.00;1.00;;;;;13.90;58.63;99952.53;5097865;27;45473;-73
2022/11/18 11:20:47;;;;;;;;;1.00;1.00;;;;;14.68;58.66;100075.97;5105525;27;45371;-73
2022/11/18 11:23:14;;;;;;;;;2.67;2.00;;;;;14.50;58.56;100033.56;5109399;27;45482;-72
2022/11/18 11:25:49;;;;;;;;;3.25;2.25;;;;;14.55;58.67;100045.34;5106741;27;45644;-74
2022/11/18 11:28:55;;;;;;;;;3.33;1.67;;;;;14.89;58.27;100071.50;5082617;27;47234;-71
2022/11/18 11:31:43;;;;;;;;;2.00;2.00;;;;;14.89;57.74;100066.16;5121260;27;45409;-71
2022/11/18 11:34:33;;;;;;;;;1.00;1.00;;;;;13.87;57.53;99912.00;5103601;27;45433;-73
2022/11/18 11:37:07;;;;;;;;;3.33;1.00;;;;;13.48;57.28;99830.34;5121837;27;45247;-73
2022/11/18 11:40:00;;;;;;;;;1.25;1.25;;;;;14.97;56.82;100067.03;5121835;27;46485;-71
2022/11/18 11:43:06;;;;;;;;;2.33;1.00;;;;;14.90;56.91;100073.16;5121544;27;45355;-72
2022/11/18 11:46:07;;;;;;;;;3.00;3.00;;;;;14.98;57.24;100063.34;5110101;27;45276;-72
2022/11/18 11:48:56;;;;;;;;;4.67;4.00;;;;;15.02;56.94;100065.47;5065143;27;45466;-74
2022/11/18 11:51:21;;;;;;;;;3.00;2.67;;;;;15.06;57.02;100082.00;5057314;27;47854;-72
2022/11/18 11:53:54;;;;;;;;;3.67;3.67;;;;;14.95;56.89;100050.34;5123466;27;45301;-72
2022/11/18 11:56:46;;;;;;;;;1.75;0.50;;;;;14.98;56.60;100063.34;5122862;27;45268;-73
2022/11/18 11:59:56;;;;;;;;;5.33;3.00;;;;;14.99;56.49;100062.31;5110036;27;45480;-72
2022/11/18 12:02:38;;;;;;;;;2.00;1.00;;;;;14.38;56.84;99981.53;5056013;27;45804;-72